sensor_id;sensor_type;location;lat;lon;timestamp;pressure;altitude;pressure_sealevel;temperature;humidity
46223;BME280;31943;51.410;7.564;2023-04-28T00:01:53;100058.72;;;10.42;55.47
46223;BME280;31943;51.410;7.564;2023-04-28T00:04:20;100049.16;;;10.41;55.41
46223;BME280;31943;51.410;7.564;2023-04-28T00:06:47;100053.50;;;10.42;55.32
46223;BME280;31943;51.410;7.564;2023-04-28T00:09:12;100042.22;;;10.42;55.42
46223;BME280;31943;51.410;7.564;2023-04-28T00:11:38;100041.38;;;10.43;55.23
46223;BME280;31943;51.410;7.564;2023-04-28T00:14:04;100037.88;;;10.44;55.53
46223;BME280;31943;51.410;7.564;2023-04-28T00:16:30;100034.38;;;10.42;55.27
46223;BME280;31943;51.410;7.564;2023-04-28T00:18:55;100036.13;;;10.41;55.19
46223;BME280;31943;51.410;7.564;2023-04-28T00:21:23;100033.47;;;10.38;55.14
46223;BME280;31943;51.410;7.564;2023-04-28T00:23:48;100034.31;;;10.34;54.70
46223;BME280;31943;51.410;7.564;2023-04-28T00:26:14;100037.81;;;10.36;54.51
46223;BME280;31943;51.410;7.564;2023-04-28T00:28:40;100029.16;;;10.37;53.98
46223;BME280;31943;51.410;7.564;2023-04-28T00:31:09;100022.22;;;10.39;54.69
46223;BME280;31943;51.410;7.564;2023-04-28T00:33:35;100019.59;;;10.39;56.13
46223;BME280;31943;51.410;7.564;2023-04-28T00:36:01;100010.03;;;10.40;56.41
46223;BME280;31943;51.410;7.564;2023-04-28T00:38:28;100010.03;;;10.41;56.62
46223;BME280;31943;51.410;7.564;2023-04-28T00:40:54;100003.06;;;10.37;57.31
46223;BME280;31943;51.410;7.564;2023-04-28T00:43:20;100004.78;;;10.37;57.72
46223;BME280;31943;51.410;7.564;2023-04-28T00:45:45;100004.78;;;10.35;57.88
46223;BME280;31943;51.410;7.564;2023-04-28T00:48:12;100000.34;;;10.26;58.39
46223;BME280;31943;51.410;7.564;2023-04-28T00:50:38;100008.13;;;10.25;58.55
46223;BME280;31943;51.410;7.564;2023-04-28T00:53:03;100010.75;;;10.23;58.41
46223;BME280;31943;51.410;7.564;2023-04-28T00:55:33;100002.06;;;10.24;58.21
46223;BME280;31943;51.410;7.564;2023-04-28T00:57:59;100003.81;;;10.28;58.71
46223;BME280;31943;51.410;7.564;2023-04-28T01:00:25;99995.13;;;10.28;58.65
46223;BME280;31943;51.410;7.564;2023-04-28T01:02:51;99993.38;;;10.28;59.48
46223;BME280;31943;51.410;7.564;2023-04-28T01:05:17;99982.06;;;10.26;59.36
46223;BME280;31943;51.410;7.564;2023-04-28T01:07:46;99981.19;;;10.24;60.12
46223;BME280;31943;51.410;7.564;2023-04-28T01:10:11;99990.78;;;10.28;60.29
46223;BME280;31943;51.410;7.564;2023-04-28T01:12:38;99983.00;;;10.30;59.89
46223;BME280;31943;51.410;7.564;2023-04-28T01:15:06;99983.91;;;10.37;60.14
46223;BME280;31943;51.410;7.564;2023-04-28T01:17:32;99983.97;;;10.46;59.77
46223;BME280;31943;51.410;7.564;2023-04-28T01:19:58;99980.56;;;10.55;59.97
46223;BME280;31943;51.410;7.564;2023-04-28T01:22:24;99978.84;;;10.60;60.32
46223;BME280;31943;51.410;7.564;2023-04-28T01:24:51;99976.28;;;10.64;59.89
46223;BME280;31943;51.410;7.564;2023-04-28T01:27:16;99978.84;;;10.60;60.36
46223;BME280;31943;51.410;7.564;2023-04-28T01:29:42;99978.00;;;10.65;60.37
46223;BME280;31943;51.410;7.564;2023-04-28T01:32:09;99974.53;;;10.66;60.09
46223;BME280;31943;51.410;7.564;2023-04-28T01:34:35;99964.06;;;10.63;59.49
46223;BME280;31943;51.410;7.564;2023-04-28T01:37:01;99971.00;;;10.60;59.12
46223;BME280;31943;51.410;7.564;2023-04-28T01:39:27;99961.44;;;10.60;58.76
46223;BME280;31943;51.410;7.564;2023-04-28T01:41:55;99972.78;;;10.62;59.26
46223;BME280;31943;51.410;7.564;2023-04-28T01:44:20;99965.88;;;10.71;58.89
46223;BME280;31943;51.410;7.564;2023-04-28T01:46:46;99968.50;;;10.78;58.82
46223;BME280;31943;51.410;7.564;2023-04-28T01:49:13;99969.38;;;10.80;59.26
46223;BME280;31943;51.410;7.564;2023-04-28T01:51:39;99964.16;;;10.80;58.95
46223;BME280;31943;51.410;7.564;2023-04-28T01:54:04;99966.75;;;10.79;59.19
46223;BME280;31943;51.410;7.564;2023-04-28T01:56:30;99958.06;;;10.81;59.67
46223;BME280;31943;51.410;7.564;2023-04-28T01:58:57;99955.47;;;10.84;59.94
46223;BME280;31943;51.410;7.564;2023-04-28T02:01:23;99962.44;;;10.84;60.55
46223;BME280;31943;51.410;7.564;2023-04-28T02:03:48;99965.94;;;10.86;60.44
46223;BME280;31943;51.410;7.564;2023-04-28T02:06:14;99962.44;;;10.85;60.50
46223;BME280;31943;51.410;7.564;2023-04-28T02:08:39;99966.81;;;10.86;60.73
46223;BME280;31943;51.410;7.564;2023-04-28T02:11:08;99967.69;;;10.88;61.68
46223;BME280;31943;51.410;7.564;2023-04-28T02:13:34;99961.56;;;10.89;62.36
46223;BME280;31943;51.410;7.564;2023-04-28T02:16:01;99962.47;;;10.88;62.04
46223;BME280;31943;51.410;7.564;2023-04-28T02:18:27;99952.03;;;10.88;62.49
46223;BME280;31943;51.410;7.564;2023-04-28T02:20:53;99947.66;;;10.87;62.62
46223;BME280;31943;51.410;7.564;2023-04-28T02:23:19;99950.25;;;10.87;63.24
46223;BME280;31943;51.410;7.564;2023-04-28T02:25:44;99946.78;;;10.85;63.67
46223;BME280;31943;51.410;7.564;2023-04-28T02:28:10;99956.34;;;10.83;64.19
46223;BME280;31943;51.410;7.564;2023-04-28T02:30:35;99958.09;;;10.83;64.04
46223;BME280;31943;51.410;7.564;2023-04-28T02:33:03;99960.66;;;10.80;64.15
46223;BME280;31943;51.410;7.564;2023-04-28T02:35:29;99956.28;;;10.76;64.55
46223;BME280;31943;51.410;7.564;2023-04-28T02:37:54;99969.34;;;10.71;64.75
46223;BME280;31943;51.410;7.564;2023-04-28T02:40:20;99964.97;;;10.62;65.27
46223;BME280;31943;51.410;7.564;2023-04-28T02:42:45;99953.63;;;10.57;65.55
46223;BME280;31943;51.410;7.564;2023-04-28T02:45:11;99953.59;;;10.53;65.37
46223;BME280;31943;51.410;7.564;2023-04-28T02:47:37;99950.13;;;10.55;64.80
46223;BME280;31943;51.410;7.564;2023-04-28T02:50:06;99947.53;;;10.60;64.66
46223;BME280;31943;51.410;7.564;2023-04-28T02:52:32;99946.63;;;10.56;64.40
46223;BME280;31943;51.410;7.564;2023-04-28T02:54:57;99944.06;;;10.61;64.15
46223;BME280;31943;51.410;7.564;2023-04-28T02:57:23;99942.31;;;10.61;63.78
46223;BME280;31943;51.410;7.564;2023-04-28T02:59:49;99941.44;;;10.55;63.98
46223;BME280;31943;51.410;7.564;2023-04-28T03:02:15;99943.16;;;10.51;64.05
46223;BME280;31943;51.410;7.564;2023-04-28T03:04:40;99934.44;;;10.52;63.92
46223;BME280;31943;51.410;7.564;2023-04-28T03:07:08;99924.03;;;10.51;64.34
46223;BME280;31943;51.410;7.564;2023-04-28T03:09:33;99930.06;;;10.43;64.35
46223;BME280;31943;51.410;7.564;2023-04-28T03:11:59;99930.94;;;10.45;64.32
46223;BME280;31943;51.410;7.564;2023-04-28T03:14:24;99914.44;;;10.45;64.10
46223;BME280;31943;51.410;7.564;2023-04-28T03:16:50;99919.63;;;10.48;64.13
46223;BME280;31943;51.410;7.564;2023-04-28T03:19:16;99924.03;;;10.51;64.35
46223;BME280;31943;51.410;7.564;2023-04-28T03:21:41;99928.31;;;10.42;63.99
46223;BME280;31943;51.410;7.564;2023-04-28T03:24:08;99917.84;;;10.38;64.66
46223;BME280;31943;51.410;7.564;2023-04-28T03:26:34;99915.25;;;10.39;64.52
46223;BME280;31943;51.410;7.564;2023-04-28T03:29:00;99925.69;;;10.39;64.99
46223;BME280;31943;51.410;7.564;2023-04-28T03:31:25;99920.47;;;10.42;65.21
46223;BME280;31943;51.410;7.564;2023-04-28T03:33:51;99928.34;;;10.50;65.24
46223;BME280;31943;51.410;7.564;2023-04-28T03:36:17;99923.16;;;10.55;65.46
46223;BME280;31943;51.410;7.564;2023-04-28T03:38:42;99917.09;;;10.57;65.21
46223;BME280;31943;51.410;7.564;2023-04-28T03:41:09;99917.09;;;10.59;65.57
46223;BME280;31943;51.410;7.564;2023-04-28T03:43:35;99910.16;;;10.61;65.22
46223;BME280;31943;51.410;7.564;2023-04-28T03:46:00;99897.06;;;10.58;64.95
46223;BME280;31943;51.410;7.564;2023-04-28T03:48:26;99911.88;;;10.59;65.41
46223;BME280;31943;51.410;7.564;2023-04-28T03:50:52;99904.94;;;10.62;64.79
46223;BME280;31943;51.410;7.564;2023-04-28T03:53:19;99897.97;;;10.66;64.54
46223;BME280;31943;51.410;7.564;2023-04-28T03:55:44;99891.91;;;10.68;64.99
46223;BME280;31943;51.410;7.564;2023-04-28T03:58:16;99888.44;;;10.69;64.98
46223;BME280;31943;51.410;7.564;2023-04-28T04:00:42;99884.94;;;10.69;65.61
46223;BME280;31943;51.410;7.564;2023-04-28T04:03:09;99886.69;;;10.70;65.52
46223;BME280;31943;51.410;7.564;2023-04-28T04:05:34;99886.66;;;10.61;65.77
46223;BME280;31943;51.410;7.564;2023-04-28T04:08:00;99878.78;;;10.52;66.11
46223;BME280;31943;51.410;7.564;2023-04-28T04:10:26;99873.56;;;10.52;65.49
46223;BME280;31943;51.410;7.564;2023-04-28T04:12:52;99875.28;;;10.46;65.32
46223;BME280;31943;51.410;7.564;2023-04-28T04:15:19;99878.81;;;10.53;65.24
46223;BME280;31943;51.410;7.564;2023-04-28T04:17:45;99876.22;;;10.59;65.23
46223;BME280;31943;51.410;7.564;2023-04-28T04:20:15;99877.13;;;10.64;65.28
46223;BME280;31943;51.410;7.564;2023-04-28T04:22:40;99864.06;;;10.66;65.44
46223;BME280;31943;51.410;7.564;2023-04-28T04:25:09;99864.91;;;10.57;66.04
46223;BME280;31943;51.410;7.564;2023-04-28T04:27:35;99852.72;;;10.55;66.54
46223;BME280;31943;51.410;7.564;2023-04-28T04:30:01;99849.22;;;10.51;66.57
46223;BME280;31943;51.410;7.564;2023-04-28T04:32:28;99850.94;;;10.46;67.00
46223;BME280;31943;51.410;7.564;2023-04-28T04:34:54;99847.44;;;10.42;67.20
46223;BME280;31943;51.410;7.564;2023-04-28T04:37:20;99839.59;;;10.36;67.79
46223;BME280;31943;51.410;7.564;2023-04-28T04:39:45;99850.88;;;10.37;67.46
46223;BME280;31943;51.410;7.564;2023-04-28T04:42:12;99840.47;;;10.35;67.38
46223;BME280;31943;51.410;7.564;2023-04-28T04:44:38;99833.50;;;10.39;67.10
46223;BME280;31943;51.410;7.564;2023-04-28T04:47:04;99817.00;;;10.44;66.56
46223;BME280;31943;51.410;7.564;2023-04-28T04:49:31;99819.66;;;10.47;66.92
46223;BME280;31943;51.410;7.564;2023-04-28T04:51:57;99822.22;;;10.44;66.94
46223;BME280;31943;51.410;7.564;2023-04-28T04:54:25;99813.53;;;10.39;67.40
46223;BME280;31943;51.410;7.564;2023-04-28T04:56:52;99809.16;;;10.38;67.34
46223;BME280;31943;51.410;7.564;2023-04-28T04:59:17;99819.56;;;10.29;67.93
46223;BME280;31943;51.410;7.564;2023-04-28T05:01:43;99809.97;;;10.23;68.41
46223;BME280;31943;51.410;7.564;2023-04-28T05:04:09;99821.25;;;10.24;68.21
46223;BME280;31943;51.410;7.564;2023-04-28T05:06:36;99825.59;;;10.20;68.89
46223;BME280;31943;51.410;7.564;2023-04-28T05:09:02;99826.50;;;10.25;68.13
46223;BME280;31943;51.410;7.564;2023-04-28T05:11:28;99829.09;;;10.24;68.56
46223;BME280;31943;51.410;7.564;2023-04-28T05:13:54;99849.94;;;10.22;68.99
46223;BME280;31943;51.410;7.564;2023-04-28T05:16:20;99843.03;;;10.31;68.37
46223;BME280;31943;51.410;7.564;2023-04-28T05:18:46;99840.50;;;10.41;67.95
46223;BME280;31943;51.410;7.564;2023-04-28T05:21:11;99835.22;;;10.32;68.57
46223;BME280;31943;51.410;7.564;2023-04-28T05:23:39;99829.16;;;10.36;68.15
46223;BME280;31943;51.410;7.564;2023-04-28T05:26:05;99818.75;;;10.38;68.34
46223;BME280;31943;51.410;7.564;2023-04-28T05:28:30;99828.28;;;10.36;68.45
46223;BME280;31943;51.410;7.564;2023-04-28T05:30:56;99824.84;;;10.43;67.87
46223;BME280;31943;51.410;7.564;2023-04-28T05:33:22;99835.28;;;10.46;68.08
46223;BME280;31943;51.410;7.564;2023-04-28T05:35:48;99842.28;;;10.52;67.65
46223;BME280;31943;51.410;7.564;2023-04-28T05:38:14;99837.06;;;10.53;67.69
46223;BME280;31943;51.410;7.564;2023-04-28T05:40:41;99836.19;;;10.60;68.14
46223;BME280;31943;51.410;7.564;2023-04-28T05:43:08;99833.59;;;10.57;67.94
46223;BME280;31943;51.410;7.564;2023-04-28T05:45:34;99836.19;;;10.54;68.40
46223;BME280;31943;51.410;7.564;2023-04-28T05:47:59;99841.44;;;10.59;68.35
46223;BME280;31943;51.410;7.564;2023-04-28T05:50:25;99839.72;;;10.68;68.31
46223;BME280;31943;51.410;7.564;2023-04-28T05:52:51;99836.22;;;10.69;68.16
46223;BME280;31943;51.410;7.564;2023-04-28T05:55:17;99827.53;;;10.69;68.69
46223;BME280;31943;51.410;7.564;2023-04-28T05:57:44;99821.47;;;10.75;68.02
46223;BME280;31943;51.410;7.564;2023-04-28T06:00:12;99812.75;;;10.76;68.20
46223;BME280;31943;51.410;7.564;2023-04-28T06:02:38;99814.50;;;10.75;67.89
46223;BME280;31943;51.410;7.564;2023-04-28T06:05:04;99797.13;;;10.79;68.29
46223;BME280;31943;51.410;7.564;2023-04-28T06:07:30;99796.25;;;10.84;67.97
46223;BME280;31943;51.410;7.564;2023-04-28T06:09:55;99791.91;;;10.86;68.42
46223;BME280;31943;51.410;7.564;2023-04-28T06:12:21;99785.81;;;10.91;68.15
46223;BME280;31943;51.410;7.564;2023-04-28T06:14:48;99783.22;;;10.97;68.00
46223;BME280;31943;51.410;7.564;2023-04-28T06:17:14;99783.22;;;11.00;68.04
46223;BME280;31943;51.410;7.564;2023-04-28T06:19:41;99782.34;;;11.02;68.08
46223;BME280;31943;51.410;7.564;2023-04-28T06:22:08;99778.00;;;11.04;68.07
46223;BME280;31943;51.410;7.564;2023-04-28T06:24:33;99784.97;;;11.08;67.17
46223;BME280;31943;51.410;7.564;2023-04-28T06:26:59;99785.84;;;11.18;67.36
46223;BME280;31943;51.410;7.564;2023-04-28T06:29:25;99781.47;;;11.28;67.74
46223;BME280;31943;51.410;7.564;2023-04-28T06:31:52;99778.88;;;11.34;67.25
46223;BME280;31943;51.410;7.564;2023-04-28T06:34:18;99771.91;;;11.41;67.55
46223;BME280;31943;51.410;7.564;2023-04-28T06:36:43;99772.75;;;11.47;68.38
46223;BME280;31943;51.410;7.564;2023-04-28T06:39:09;99774.50;;;11.55;68.24
46223;BME280;31943;51.410;7.564;2023-04-28T06:41:35;99773.63;;;11.59;67.97
46223;BME280;31943;51.410;7.564;2023-04-28T06:44:00;99777.09;;;11.65;68.27
46223;BME280;31943;51.410;7.564;2023-04-28T06:46:26;99772.72;;;11.69;67.72
46223;BME280;31943;51.410;7.564;2023-04-28T06:48:54;99770.09;;;11.74;67.48
46223;BME280;31943;51.410;7.564;2023-04-28T06:51:19;99757.91;;;11.73;67.60
46223;BME280;31943;51.410;7.564;2023-04-28T06:53:45;99757.00;;;11.80;67.78
46223;BME280;31943;51.410;7.564;2023-04-28T06:56:12;99759.63;;;11.81;67.68
46223;BME280;31943;51.410;7.564;2023-04-28T06:58:38;99761.34;;;11.92;67.68
46223;BME280;31943;51.410;7.564;2023-04-28T07:01:04;99749.13;;;12.01;67.28
46223;BME280;31943;51.410;7.564;2023-04-28T07:03:30;99743.84;;;12.11;67.29
46223;BME280;31943;51.410;7.564;2023-04-28T07:05:57;99736.81;;;12.25;67.41
46223;BME280;31943;51.410;7.564;2023-04-28T07:08:23;99735.91;;;12.32;67.54
46223;BME280;31943;51.410;7.564;2023-04-28T07:10:49;99738.47;;;12.43;66.95
46223;BME280;31943;51.410;7.564;2023-04-28T07:13:15;99743.69;;;12.49;66.85
46223;BME280;31943;51.410;7.564;2023-04-28T07:15:40;99750.63;;;12.50;66.77
46223;BME280;31943;51.410;7.564;2023-04-28T07:18:07;99748.88;;;12.54;66.88
46223;BME280;31943;51.410;7.564;2023-04-28T07:20:33;99748.81;;;12.63;67.12
46223;BME280;31943;51.410;7.564;2023-04-28T07:23:00;99754.00;;;12.69;66.84
46223;BME280;31943;51.410;7.564;2023-04-28T07:25:26;99762.69;;;12.76;66.34
46223;BME280;31943;51.410;7.564;2023-04-28T07:27:51;99753.97;;;12.75;66.54
46223;BME280;31943;51.410;7.564;2023-04-28T07:30:17;99750.44;;;12.79;66.97
46223;BME280;31943;51.410;7.564;2023-04-28T07:32:43;99745.22;;;12.81;66.67
46223;BME280;31943;51.410;7.564;2023-04-28T07:35:09;99746.06;;;12.86;66.68
46223;BME280;31943;51.410;7.564;2023-04-28T07:37:35;99733.75;;;12.96;67.04
46223;BME280;31943;51.410;7.564;2023-04-28T07:40:03;99737.22;;;12.98;67.21
46223;BME280;31943;51.410;7.564;2023-04-28T07:42:29;99742.47;;;12.96;66.73
46223;BME280;31943;51.410;7.564;2023-04-28T07:44:55;99746.81;;;12.97;66.48
46223;BME280;31943;51.410;7.564;2023-04-28T07:47:20;99738.94;;;13.03;66.56
46223;BME280;31943;51.410;7.564;2023-04-28T07:49:46;99741.50;;;13.08;66.72
46223;BME280;31943;51.410;7.564;2023-04-28T07:52:12;99737.06;;;13.18;66.37
46223;BME280;31943;51.410;7.564;2023-04-28T07:54:37;99734.38;;;13.24;66.42
46223;BME280;31943;51.410;7.564;2023-04-28T07:57:30;99738.72;;;13.28;66.49
46223;BME280;31943;51.410;7.564;2023-04-28T07:59:56;99745.72;;;13.23;66.55
46223;BME280;31943;51.410;7.564;2023-04-28T08:02:21;99745.69;;;13.31;66.68
46223;BME280;31943;51.410;7.564;2023-04-28T08:04:47;99740.44;;;13.35;66.30
46223;BME280;31943;51.410;7.564;2023-04-28T08:07:13;99739.47;;;13.42;66.37
46223;BME280;31943;51.410;7.564;2023-04-28T08:09:39;99735.81;;;13.60;66.53
46223;BME280;31943;51.410;7.564;2023-04-28T08:12:05;99747.78;;;13.84;65.81
46223;BME280;31943;51.410;7.564;2023-04-28T08:14:32;99749.06;;;14.21;65.45
46223;BME280;31943;51.410;7.564;2023-04-28T08:16:58;99740.16;;;14.33;65.14
46223;BME280;31943;51.410;7.564;2023-04-28T08:19:25;99746.41;;;14.27;64.74
46223;BME280;31943;51.410;7.564;2023-04-28T08:21:52;99747.19;;;14.31;65.08
46223;BME280;31943;51.410;7.564;2023-04-28T08:24:17;99748.84;;;14.41;65.14
46223;BME280;31943;51.410;7.564;2023-04-28T08:26:43;99740.50;;;14.73;64.49
46223;BME280;31943;51.410;7.564;2023-04-28T08:29:09;99749.22;;;14.75;63.89
46223;BME280;31943;51.410;7.564;2023-04-28T08:31:38;99747.56;;;14.70;63.52
46223;BME280;31943;51.410;7.564;2023-04-28T08:34:04;99748.50;;;14.67;63.77
46223;BME280;31943;51.410;7.564;2023-04-28T08:36:29;99748.50;;;14.67;63.64
46223;BME280;31943;51.410;7.564;2023-04-28T08:38:57;99757.19;;;14.72;63.93
46223;BME280;31943;51.410;7.564;2023-04-28T08:41:22;99750.25;;;14.68;63.55
46223;BME280;31943;51.410;7.564;2023-04-28T08:43:48;99749.34;;;14.68;63.78
46223;BME280;31943;51.410;7.564;2023-04-28T08:46:15;99752.03;;;14.65;63.79
46223;BME280;31943;51.410;7.564;2023-04-28T08:48:44;99757.28;;;14.65;64.00
46223;BME280;31943;51.410;7.564;2023-04-28T08:51:13;99749.94;;;14.87;63.35
46223;BME280;31943;51.410;7.564;2023-04-28T08:53:43;99755.84;;;15.01;63.33
46223;BME280;31943;51.410;7.564;2023-04-28T08:56:09;99754.13;;;14.98;63.07
46223;BME280;31943;51.410;7.564;2023-04-28T08:58:36;99749.47;;;15.16;63.19
46223;BME280;31943;51.410;7.564;2023-04-28T09:01:02;99748.25;;;15.37;63.10
46223;BME280;31943;51.410;7.564;2023-04-28T09:03:27;99745.41;;;15.49;62.36
46223;BME280;31943;51.410;7.564;2023-04-28T09:05:54;99741.00;;;15.50;62.52
46223;BME280;31943;51.410;7.564;2023-04-28T09:08:20;99739.09;;;15.58;62.46
46223;BME280;31943;51.410;7.564;2023-04-28T09:10:46;99732.94;;;15.60;61.66
46223;BME280;31943;51.410;7.564;2023-04-28T09:13:24;99741.59;;;15.64;61.65
46223;BME280;31943;51.410;7.564;2023-04-28T09:15:50;99732.28;;;15.48;62.02
46223;BME280;31943;51.410;7.564;2023-04-28T09:18:15;99739.28;;;15.49;62.45
46223;BME280;31943;51.410;7.564;2023-04-28T09:20:41;99741.78;;;15.55;62.20
46223;BME280;31943;51.410;7.564;2023-04-28T09:23:14;99739.09;;;15.58;62.18
46223;BME280;31943;51.410;7.564;2023-04-28T09:25:54;99733.94;;;15.52;62.09
46223;BME280;31943;51.410;7.564;2023-04-28T09:28:20;99729.47;;;15.58;62.42
46223;BME280;31943;51.410;7.564;2023-04-28T09:30:46;99733.81;;;15.58;62.73
46223;BME280;31943;51.410;7.564;2023-04-28T09:33:13;99728.53;;;15.59;62.28
46223;BME280;31943;51.410;7.564;2023-04-28T09:35:40;99724.94;;;15.65;62.02
46223;BME280;31943;51.410;7.564;2023-04-28T09:38:06;99726.72;;;15.65;62.02
46223;BME280;31943;51.410;7.564;2023-04-28T09:40:48;99724.94;;;15.65;61.85
46223;BME280;31943;51.410;7.564;2023-04-28T09:43:22;99727.59;;;15.62;62.19
46223;BME280;31943;51.410;7.564;2023-04-28T09:45:47;99723.13;;;15.67;62.11
46223;BME280;31943;51.410;7.564;2023-04-28T09:48:28;99723.94;;;15.72;62.07
46223;BME280;31943;51.410;7.564;2023-04-28T09:51:05;99733.56;;;15.73;61.90
46223;BME280;31943;51.410;7.564;2023-04-28T09:53:34;99721.22;;;15.78;61.95
46223;BME280;31943;51.410;7.564;2023-04-28T09:56:04;99727.88;;;15.95;61.61
46223;BME280;31943;51.410;7.564;2023-04-28T09:58:30;99723.16;;;16.11;61.24
46223;BME280;31943;51.410;7.564;2023-04-28T10:00:59;99714.13;;;16.24;61.01
46223;BME280;31943;51.410;7.564;2023-04-28T10:03:26;99721.03;;;16.28;60.73
46223;BME280;31943;51.410;7.564;2023-04-28T10:05:53;99721.56;;;16.44;60.24
46223;BME280;31943;51.410;7.564;2023-04-28T10:08:19;99720.56;;;16.50;60.25
46223;BME280;31943;51.410;7.564;2023-04-28T10:10:45;99725.69;;;16.56;60.52
46223;BME280;31943;51.410;7.564;2023-04-28T10:13:16;99721.22;;;16.59;59.97
46223;BME280;31943;51.410;7.564;2023-04-28T10:15:42;99729.97;;;16.60;60.00
46223;BME280;31943;51.410;7.564;2023-04-28T10:18:08;99731.09;;;16.50;59.94
46223;BME280;31943;51.410;7.564;2023-04-28T10:20:34;99722.78;;;16.29;60.49
46223;BME280;31943;51.410;7.564;2023-04-28T10:23:16;99730.31;;;16.06;60.88
46223;BME280;31943;51.410;7.564;2023-04-28T10:25:53;99729.50;;;16.02;61.65
46223;BME280;31943;51.410;7.564;2023-04-28T10:28:23;99714.53;;;16.06;61.23
46223;BME280;31943;51.410;7.564;2023-04-28T10:31:09;99711.78;;;16.10;62.37
46223;BME280;31943;51.410;7.564;2023-04-28T10:33:36;99708.69;;;16.32;62.68
46223;BME280;31943;51.410;7.564;2023-04-28T10:36:02;99722.69;;;16.71;62.72
46223;BME280;31943;51.410;7.564;2023-04-28T10:38:28;99723.47;;;17.14;62.11
46223;BME280;31943;51.410;7.564;2023-04-28T10:40:55;99713.75;;;17.16;61.93
46223;BME280;31943;51.410;7.564;2023-04-28T10:43:48;99708.16;;;17.28;61.59
46223;BME280;31943;51.410;7.564;2023-04-28T10:46:14;99708.28;;;17.56;60.90
46223;BME280;31943;51.410;7.564;2023-04-28T10:48:53;99704.72;;;17.90;59.84
46223;BME280;31943;51.410;7.564;2023-04-28T10:51:37;99695.22;;;18.14;58.72
46223;BME280;31943;51.410;7.564;2023-04-28T10:54:18;99698.13;;;18.35;58.58
46223;BME280;31943;51.410;7.564;2023-04-28T10:57:15;99697.56;;;18.53;58.58
46223;BME280;31943;51.410;7.564;2023-04-28T10:59:43;99698.28;;;18.58;58.70
46223;BME280;31943;51.410;7.564;2023-04-28T11:02:37;99701.00;;;18.55;58.22
46223;BME280;31943;51.410;7.564;2023-04-28T11:05:10;99694.72;;;18.31;58.29
46223;BME280;31943;51.410;7.564;2023-04-28T11:07:38;99697.22;;;18.36;57.76
46223;BME280;31943;51.410;7.564;2023-04-28T11:10:04;99693.31;;;18.20;58.25
46223;BME280;31943;51.410;7.564;2023-04-28T11:12:30;99690.53;;;18.24;58.58
46223;BME280;31943;51.410;7.564;2023-04-28T11:15:10;99695.00;;;18.22;58.42
46223;BME280;31943;51.410;7.564;2023-04-28T11:17:40;99692.44;;;17.89;58.99
46223;BME280;31943;51.410;7.564;2023-04-28T11:20:07;99702.53;;;17.73;59.73
46223;BME280;31943;51.410;7.564;2023-04-28T11:22:37;99696.56;;;17.67;60.13
46223;BME280;31943;51.410;7.564;2023-04-28T11:25:03;99697.03;;;17.50;61.01
46223;BME280;31943;51.410;7.564;2023-04-28T11:27:30;99695.59;;;17.38;61.52
46223;BME280;31943;51.410;7.564;2023-04-28T11:29:57;99702.53;;;17.08;61.92
46223;BME280;31943;51.410;7.564;2023-04-28T11:32:27;99699.38;;;16.93;62.49
46223;BME280;31943;51.410;7.564;2023-04-28T11:34:53;99701.91;;;16.98;62.77
46223;BME280;31943;51.410;7.564;2023-04-28T11:37:18;99703.78;;;16.93;62.51
46223;BME280;31943;51.410;7.564;2023-04-28T11:39:44;99705.81;;;16.82;62.83
46223;BME280;31943;51.410;7.564;2023-04-28T11:42:09;99713.91;;;16.72;62.83
46223;BME280;31943;51.410;7.564;2023-04-28T11:44:35;99717.63;;;16.64;63.38
46223;BME280;31943;51.410;7.564;2023-04-28T11:47:03;99713.34;;;16.58;63.32
46223;BME280;31943;51.410;7.564;2023-04-28T11:49:31;99711.66;;;16.55;63.87
46223;BME280;31943;51.410;7.564;2023-04-28T11:52:03;99712.75;;;16.47;64.25
46223;BME280;31943;51.410;7.564;2023-04-28T11:54:29;99711.97;;;16.41;64.58
46223;BME280;31943;51.410;7.564;2023-04-28T11:56:56;99717.19;;;16.45;64.80
46223;BME280;31943;51.410;7.564;2023-04-28T11:59:26;99717.25;;;16.41;64.78
46223;BME280;31943;51.410;7.564;2023-04-28T12:01:53;99708.53;;;16.38;65.12
46223;BME280;31943;51.410;7.564;2023-04-28T12:04:29;99711.97;;;16.41;65.49
46223;BME280;31943;51.410;7.564;2023-04-28T12:06:59;99711.84;;;16.48;65.50
46223;BME280;31943;51.410;7.564;2023-04-28T12:09:24;99710.81;;;16.55;65.45
46223;BME280;31943;51.410;7.564;2023-04-28T12:11:52;99708.84;;;16.63;65.07
46223;BME280;31943;51.410;7.564;2023-04-28T12:14:18;99708.69;;;16.69;65.59
46223;BME280;31943;51.410;7.564;2023-04-28T12:16:45;99709.63;;;16.68;65.52
46223;BME280;31943;51.410;7.564;2023-04-28T12:19:12;99710.59;;;16.64;65.09
46223;BME280;31943;51.410;7.564;2023-04-28T12:21:40;99708.81;;;16.65;65.35
46223;BME280;31943;51.410;7.564;2023-04-28T12:24:21;99709.03;;;16.55;65.64
46223;BME280;31943;51.410;7.564;2023-04-28T12:26:47;99714.25;;;16.57;65.49
46223;BME280;31943;51.410;7.564;2023-04-28T12:29:35;99715.28;;;16.51;65.84
46223;BME280;31943;51.410;7.564;2023-04-28T12:32:03;99713.09;;;16.31;66.01
46223;BME280;31943;51.410;7.564;2023-04-28T12:34:30;99722.09;;;16.21;66.53
46223;BME280;31943;51.410;7.564;2023-04-28T12:36:57;99715.97;;;16.19;66.40
46223;BME280;31943;51.410;7.564;2023-04-28T12:39:23;99719.50;;;16.18;66.37
46223;BME280;31943;51.410;7.564;2023-04-28T12:41:48;99721.06;;;16.27;66.40
46223;BME280;31943;51.410;7.564;2023-04-28T12:44:14;99718.28;;;16.34;66.12
46223;BME280;31943;51.410;7.564;2023-04-28T12:46:39;99717.25;;;16.41;66.10
46223;BME280;31943;51.410;7.564;2023-04-28T12:49:05;99720.81;;;16.39;66.07
46223;BME280;31943;51.410;7.564;2023-04-28T12:51:31;99726.91;;;16.43;66.25
46223;BME280;31943;51.410;7.564;2023-04-28T12:53:59;99724.06;;;16.50;66.23
46223;BME280;31943;51.410;7.564;2023-04-28T12:56:25;99727.34;;;16.60;65.81
46223;BME280;31943;51.410;7.564;2023-04-28T12:58:50;99726.41;;;16.64;66.07
46223;BME280;31943;51.410;7.564;2023-04-28T13:01:16;99720.94;;;16.72;65.67